Time;durP1;ratioP1;P1;durP2;ratioP2;P2;SDS_P1;SDS_P2;PMS_P1;PMS_P2;Temp;Humidity;BMP_temperature;BMP_pressure;BME280_temperature;BME280_humidity;BME280_pressure;Samples;Min_cycle;Max_cycle;Signal;HPM_P1;HPM_P2
2022/05/13 00:02:10;;;;;;;8.05;3.60;;;17.80;78.50;;;;;;4991062;28;20553;-58
2022/05/13 00:04:37;;;;;;;6.32;4.15;;;17.80;78.10;;;;;;4991005;28;20026;-60
2022/05/13 00:07:03;;;;;;;4.65;3.67;;;17.80;78.10;;;;;;4989697;28;20049;-59
2022/05/13 00:12:14;;;;;;;6.97;4.43;;;17.80;78.10;;;;;;4991020;28;20121;-60
2022/05/13 00:14:41;;;;;;;6.28;3.92;;;17.80;78.60;;;;;;4990766;28;20030;-59
2022/05/13 00:17:08;;;;;;;5.45;4.10;;;17.70;79.20;;;;;;4990767;28;20073;-57
2022/05/13 00:19:33;;;;;;;5.93;4.07;;;17.70;80.20;;;;;;4989733;28;20511;-56
2022/05/13 00:21:59;;;;;;;5.78;4.40;;;17.60;81.00;;;;;;4990926;28;20039;-58
2022/05/13 00:24:25;;;;;;;5.75;4.30;;;17.50;83.40;;;;;;4990899;28;20438;-58
2022/05/13 00:26:50;;;;;;;4.50;3.83;;;17.20;83.50;;;;;;4990150;28;20039;-58
2022/05/13 00:29:16;;;;;;;4.97;3.80;;;17.00;84.10;;;;;;4990799;28;20169;-57
2022/05/13 00:31:42;;;;;;;7.38;4.40;;;16.90;84.60;;;;;;4990583;28;20494;-60
2022/05/13 00:34:09;;;;;;;5.57;3.95;;;16.90;84.60;;;;;;4990515;28;20479;-59
2022/05/13 00:36:35;;;;;;;6.22;4.30;;;16.90;84.50;;;;;;4990513;28;20045;-60
2022/05/13 00:39:04;;;;;;;5.75;3.78;;;16.90;85.10;;;;;;4991006;28;20106;-58
2022/05/13 00:41:30;;;;;;;6.55;4.00;;;16.90;85.50;;;;;;4990765;28;20042;-58
2022/05/13 00:43:56;;;;;;;5.55;4.05;;;17.00;85.50;;;;;;4990653;28;20031;-58
2022/05/13 00:46:24;;;;;;;6.35;4.10;;;16.90;85.50;;;;;;4989392;28;20045;-59
2022/05/13 00:48:50;;;;;;;7.13;4.53;;;16.90;86.40;;;;;;4991091;28;20138;-58
2022/05/13 00:51:26;;;;;;;4.68;4.18;;;16.90;85.90;;;;;;4991084;28;20041;-57
2022/05/13 00:53:52;;;;;;;6.18;4.45;;;16.80;86.70;;;;;;4991734;28;20065;-62
2022/05/13 00:56:19;;;;;;;7.78;5.03;;;16.70;87.50;;;;;;4994388;28;20066;-62
2022/05/13 00:58:49;;;;;;;6.25;4.22;;;16.70;87.40;;;;;;4977137;28;20081;-62
2022/05/13 01:01:15;;;;;;;7.35;4.35;;;16.70;87.90;;;;;;4993357;28;20038;-58
2022/05/13 01:03:41;;;;;;;8.52;5.05;;;16.80;87.40;;;;;;4994029;28;20035;-62
2022/05/13 01:06:10;;;;;;;8.57;5.03;;;16.80;87.20;;;;;;4994502;28;20030;-62
2022/05/13 01:08:36;;;;;;;7.75;4.43;;;16.80;88.10;;;;;;4993223;28;20038;-61
2022/05/13 01:11:07;;;;;;;8.48;4.72;;;16.70;87.60;;;;;;4994226;28;20038;-62
2022/05/13 01:13:36;;;;;;;6.40;4.38;;;16.90;86.60;;;;;;4994362;28;20038;-59
2022/05/13 01:16:01;;;;;;;6.47;4.53;;;16.90;86.90;;;;;;4994426;28;20394;-62
2022/05/13 01:18:31;;;;;;;5.60;4.47;;;16.90;88.30;;;;;;4993256;28;20040;-62
2022/05/13 01:20:57;;;;;;;5.43;4.53;;;16.90;88.10;;;;;;4994127;28;20034;-59
2022/05/13 01:23:25;;;;;;;6.05;4.47;;;16.80;88.40;;;;;;4993856;28;20066;-59
2022/05/13 01:26:01;;;;;;;6.38;4.47;;;16.80;88.90;;;;;;4993561;28;20049;-61
2022/05/13 01:28:40;;;;;;;7.63;4.78;;;16.80;88.60;;;;;;4994486;28;20498;-62
2022/05/13 01:31:10;;;;;;;10.38;5.22;;;16.80;88.10;;;;;;4995126;28;20026;-61
2022/05/13 01:33:36;;;;;;;9.27;5.20;;;16.70;87.40;;;;;;4994894;28;20121;-61
2022/05/13 01:36:04;;;;;;;11.75;5.30;;;16.60;87.10;;;;;;4994302;28;20117;-60
2022/05/13 01:38:33;;;;;;;9.93;4.90;;;16.70;86.60;;;;;;4993610;28;20556;-59
2022/05/13 01:41:01;;;;;;;5.53;4.72;;;16.70;86.80;;;;;;4994480;28;20092;-62
2022/05/13 01:43:26;;;;;;;8.50;5.68;;;16.60;86.80;;;;;;4994639;28;20022;-62
2022/05/13 01:45:53;;;;;;;9.75;5.40;;;16.50;86.70;;;;;;4994150;28;20116;-59
2022/05/13 01:48:19;;;;;;;10.77;6.18;;;16.40;84.80;;;;;;4994778;28;20022;-62
2022/05/13 01:50:45;;;;;;;8.88;5.70;;;16.40;85.00;;;;;;4993293;28;20034;-62
2022/05/13 01:53:11;;;;;;;12.27;6.38;;;16.30;84.00;;;;;;4994959;28;20092;-61
2022/05/13 01:55:42;;;;;;;7.93;5.78;;;16.20;82.30;;;;;;4994056;28;20117;-60
2022/05/13 01:58:15;;;;;;;9.45;5.72;;;16.10;82.40;;;;;;4994210;28;20323;-61
2022/05/13 02:00:42;;;;;;;7.30;5.63;;;16.10;83.10;;;;;;4994633;28;20517;-60
2022/05/13 02:05:52;;;;;;;7.47;5.50;;;16.10;83.90;;;;;;4993590;28;20034;-62
2022/05/13 02:08:18;;;;;;;11.57;6.60;;;16.10;84.70;;;;;;4990405;28;20061;-61
2022/05/13 02:10:44;;;;;;;10.57;5.50;;;16.00;84.80;;;;;;4992102;28;20061;-62
2022/05/13 02:13:11;;;;;;;11.88;5.82;;;16.10;84.70;;;;;;4992385;28;20132;-62
2022/05/13 02:15:37;;;;;;;10.40;6.10;;;16.10;84.70;;;;;;4992185;28;20042;-58
2022/05/13 02:18:02;;;;;;;10.80;5.97;;;16.20;85.40;;;;;;4991251;28;20140;-61
2022/05/13 02:20:28;;;;;;;11.93;6.53;;;16.10;86.10;;;;;;4992693;28;20034;-61
2022/05/13 02:22:54;;;;;;;9.20;6.38;;;16.10;85.10;;;;;;4993348;28;20038;-62
2022/05/13 02:25:19;;;;;;;9.07;6.85;;;16.00;84.20;;;;;;4988251;28;20035;-60
2022/05/13 02:27:45;;;;;;;9.43;6.65;;;15.90;83.80;;;;;;4975729;28;20503;-62
2022/05/13 02:30:12;;;;;;;9.25;6.53;;;15.80;83.20;;;;;;4979069;28;20439;-62
2022/05/13 02:32:37;;;;;;;12.15;6.53;;;15.70;82.80;;;;;;4994722;28;20026;-62
2022/05/13 02:35:04;;;;;;;13.60;7.35;;;15.60;83.30;;;;;;4993684;28;20290;-61
2022/05/13 02:37:29;;;;;;;15.50;7.63;;;15.60;83.50;;;;;;4993323;28;20121;-57
2022/05/13 02:39:55;;;;;;;12.18;6.53;;;15.50;83.40;;;;;;4995255;28;20459;-62
2022/05/13 02:42:21;;;;;;;7.32;6.60;;;15.60;83.20;;;;;;4994454;28;20049;-61
2022/05/13 02:44:46;;;;;;;9.75;6.28;;;15.50;82.70;;;;;;4994438;28;20402;-61
2022/05/13 02:47:12;;;;;;;9.00;6.35;;;15.50;82.30;;;;;;4994034;28;20058;-57
2022/05/13 02:49:38;;;;;;;9.23;6.60;;;15.50;81.60;;;;;;4994295;28;20117;-62
2022/05/13 02:52:05;;;;;;;8.27;5.88;;;15.40;81.80;;;;;;4993834;28;20046;-59
2022/05/13 02:54:31;;;;;;;10.20;7.13;;;15.40;81.80;;;;;;4993343;28;20034;-59
2022/05/13 02:56:56;;;;;;;18.88;13.05;;;15.40;81.80;;;;;;4993852;28;20046;-60
2022/05/13 02:59:22;;;;;;;14.07;8.10;;;15.50;81.80;;;;;;4992560;28;20039;-63
2022/05/13 03:01:48;;;;;;;9.55;6.72;;;15.40;82.30;;;;;;4972932;28;20046;-60
2022/05/13 03:04:13;;;;;;;8.93;6.60;;;15.40;83.00;;;;;;4974313;28;20089;-63
2022/05/13 03:06:39;;;;;;;7.45;5.90;;;15.30;83.20;;;;;;4988320;28;20038;-62
2022/05/13 03:09:05;;;;;;;8.23;6.10;;;15.40;83.10;;;;;;4993416;28;20061;-58
2022/05/13 03:11:30;;;;;;;7.68;6.30;;;15.40;83.00;;;;;;4993112;28;20031;-61
2022/05/13 03:13:56;;;;;;;9.20;6.28;;;15.40;83.50;;;;;;4993434;28;20038;-62
2022/05/13 03:16:24;;;;;;;11.38;6.13;;;15.40;84.00;;;;;;4992805;28;20034;-61
2022/05/13 03:18:55;;;;;;;10.68;6.57;;;15.50;83.50;;;;;;4992293;28;20648;-63
2022/05/13 03:21:22;;;;;;;7.93;6.13;;;15.40;83.60;;;;;;4992851;28;20030;-62
2022/05/13 03:23:47;;;;;;;15.13;10.30;;;15.40;84.40;;;;;;4991186;28;20030;-61
2022/05/13 03:26:16;;;;;;;11.38;6.90;;;15.40;84.10;;;;;;4993135;28;20038;-62
2022/05/13 03:28:42;;;;;;;12.10;7.25;;;15.40;83.80;;;;;;4993184;28;20030;-62
2022/05/13 03:31:08;;;;;;;7.80;6.72;;;15.40;83.40;;;;;;4992624;28;20042;-62
2022/05/13 03:33:34;;;;;;;11.70;6.55;;;15.40;83.80;;;;;;4992172;28;20061;-60
2022/05/13 03:36:00;;;;;;;10.13;7.93;;;15.50;83.70;;;;;;4992574;28;20034;-62
2022/05/13 03:38:26;;;;;;;9.15;6.63;;;15.50;83.60;;;;;;4991618;28;20521;-61
2022/05/13 03:40:51;;;;;;;11.40;8.15;;;15.40;84.30;;;;;;4991015;28;20026;-61
2022/05/13 03:43:18;;;;;;;11.35;8.73;;;15.40;85.30;;;;;;4992916;28;20130;-63
2022/05/13 03:45:44;;;;;;;13.43;9.60;;;15.40;86.10;;;;;;4986163;28;20553;-60
2022/05/13 03:48:10;;;;;;;11.57;8.88;;;15.40;86.80;;;;;;4973696;28;20114;-60
2022/05/13 03:50:37;;;;;;;15.27;11.70;;;15.40;87.30;;;;;;4975882;28;20066;-62
2022/05/13 03:53:04;;;;;;;16.30;8.98;;;15.40;87.60;;;;;;4992665;28;20038;-62
2022/05/13 03:55:30;;;;;;;9.50;7.38;;;15.40;87.10;;;;;;4991921;28;20257;-61
2022/05/13 03:57:56;;;;;;;12.68;8.18;;;15.40;87.40;;;;;;4992139;28;20045;-61
2022/05/13 04:00:22;;;;;;;13.00;9.55;;;15.40;87.40;;;;;;4990222;28;20034;-62
2022/05/13 04:02:48;;;;;;;13.32;9.77;;;15.40;87.60;;;;;;4991844;28;20038;-61
2022/05/13 04:10:43;;;;;;;14.20;9.05;;;15.40;85.80;;;;;;4990701;28;20034;-61
2022/05/13 04:16:06;;;;;;;8.25;6.57;;;15.50;85.40;;;;;;4991884;28;20062;-62
2022/05/13 04:18:40;;;;;;;13.02;6.90;;;15.50;84.60;;;;;;4991030;28;20046;-62
2022/05/13 04:21:10;;;;;;;10.53;8.27;;;15.50;85.70;;;;;;4990624;28;20125;-61
2022/05/13 04:23:37;;;;;;;9.63;6.82;;;15.40;85.30;;;;;;4991894;28;20505;-61
2022/05/13 04:26:03;;;;;;;6.97;6.28;;;15.50;83.90;;;;;;4992027;28;20026;-61
2022/05/13 04:28:29;;;;;;;9.00;6.65;;;15.40;84.60;;;;;;4992207;28;20041;-62
2022/05/13 04:30:54;;;;;;;9.98;7.10;;;15.30;85.00;;;;;;4994927;28;20030;-62
2022/05/13 04:33:20;;;;;;;10.68;7.13;;;15.30;85.20;;;;;;4995468;28;20039;-62
2022/05/13 04:35:46;;;;;;;10.23;7.45;;;15.40;85.20;;;;;;4994687;28;20631;-61
2022/05/13 04:38:12;;;;;;;11.73;7.93;;;15.40;85.50;;;;;;4995597;28;20049;-59
2022/05/13 04:40:37;;;;;;;10.38;7.00;;;15.40;84.70;;;;;;4995462;28;20037;-63
2022/05/13 04:43:06;;;;;;;11.77;7.70;;;15.40;84.90;;;;;;4995734;28;20410;-62
2022/05/13 04:45:32;;;;;;;8.35;7.55;;;15.40;84.80;;;;;;4995233;28;20064;-62
2022/05/13 04:48:16;;;;;;;12.00;7.40;;;15.30;85.40;;;;;;4994072;28;20030;-63
2022/05/13 04:50:48;;;;;;;12.55;7.22;;;15.30;85.90;;;;;;4995269;28;20081;-63
2022/05/13 04:53:21;;;;;;;11.68;7.78;;;15.30;86.00;;;;;;4994823;28;20069;-61
2022/05/13 04:55:47;;;;;;;10.18;7.07;;;15.30;86.60;;;;;;4995088;28;20070;-61
2022/05/13 04:58:13;;;;;;;12.07;8.73;;;15.30;86.40;;;;;;4995243;28;20049;-62
2022/05/13 05:00:39;;;;;;;10.50;7.95;;;15.30;86.60;;;;;;4994586;28;20038;-61
2022/05/13 05:03:05;;;;;;;10.10;7.97;;;15.30;87.30;;;;;;4995210;28;20042;-60
2022/05/13 05:05:30;;;;;;;10.45;7.22;;;15.20;88.10;;;;;;4994665;28;20568;-62
2022/05/13 05:07:56;;;;;;;8.50;7.65;;;15.10;88.20;;;;;;4994033;28;20446;-60
2022/05/13 05:10:22;;;;;;;11.00;8.55;;;15.00;88.80;;;;;;4995088;28;20034;-62
2022/05/13 05:12:55;;;;;;;8.73;7.80;;;15.00;89.10;;;;;;4995252;28;20042;-61
2022/05/13 05:15:22;;;;;;;9.80;8.83;;;15.00;89.20;;;;;;4994748;28;20694;-58
2022/05/13 05:17:47;;;;;;;15.38;8.30;;;15.10;89.20;;;;;;4977832;28;20277;-60
2022/05/13 05:20:14;;;;;;;12.70;7.85;;;15.30;88.10;;;;;;4995442;28;20576;-61
2022/05/13 05:22:41;;;;;;;13.00;8.55;;;15.30;88.50;;;;;;4994201;28;20034;-62
2022/05/13 05:25:07;;;;;;;10.30;8.23;;;15.30;88.40;;;;;;4995516;28;20030;-63
2022/05/13 05:27:35;;;;;;;11.90;7.55;;;15.30;88.30;;;;;;4994314;28;20046;-61
2022/05/13 05:30:03;;;;;;;11.73;8.32;;;15.40;89.00;;;;;;4993146;28;20097;-61
2022/05/13 05:32:28;;;;;;;12.05;8.13;;;15.50;88.10;;;;;;4995026;28;20367;-61
2022/05/13 05:34:54;;;;;;;10.30;7.35;;;15.60;88.10;;;;;;4992291;28;20054;-62
2022/05/13 05:37:20;;;;;;;13.63;9.05;;;15.70;88.80;;;;;;4992924;28;20423;-62
2022/05/13 05:39:45;;;;;;;10.98;8.82;;;15.70;88.90;;;;;;4991686;28;20042;-60
2022/05/13 05:42:11;;;;;;;11.93;8.27;;;15.70;89.00;;;;;;4992391;28;20037;-60
2022/05/13 05:44:36;;;;;;;16.35;8.60;;;15.60;89.20;;;;;;4994095;28;20212;-59
2022/05/13 05:47:04;;;;;;;13.77;9.30;;;15.60;89.40;;;;;;4993865;28;20100;-62
2022/05/13 05:49:30;;;;;;;17.67;9.25;;;15.40;89.90;;;;;;4993651;28;20145;-62
2022/05/13 05:51:56;;;;;;;15.10;9.20;;;15.40;90.10;;;;;;4994612;28;20023;-62
2022/05/13 05:57:15;;;;;;;9.82;8.15;;;15.70;89.40;;;;;;4993617;28;20042;-61
2022/05/13 05:59:46;;;;;;;16.02;8.50;;;15.80;89.60;;;;;;4995616;28;20030;-63
2022/05/13 06:02:12;;;;;;;16.05;8.68;;;15.90;89.10;;;;;;4995080;28;20050;-60
2022/05/13 06:04:38;;;;;;;17.05;9.98;;;15.90;89.70;;;;;;4994300;28;20034;-63
2022/05/13 06:07:09;;;;;;;16.15;9.13;;;15.90;90.00;;;;;;4995430;28;20042;-61
2022/05/13 06:09:36;;;;;;;15.75;9.52;;;16.00;90.10;;;;;;4994677;28;20066;-63
2022/05/13 06:12:02;;;;;;;11.85;8.98;;;15.90;90.10;;;;;;4994165;28;20058;-60
2022/05/13 06:14:28;;;;;;;11.18;8.50;;;16.00;90.00;;;;;;4994088;28;20045;-60
2022/05/13 06:16:54;;;;;;;12.98;8.80;;;16.20;90.00;;;;;;4993993;28;20042;-63
2022/05/13 06:19:20;;;;;;;17.08;8.55;;;16.30;89.30;;;;;;4994139;28;20092;-60
2022/05/13 06:21:45;;;;;;;13.93;8.40;;;16.50;88.90;;;;;;4994023;28;20035;-62
2022/05/13 06:24:12;;;;;;;10.27;8.00;;;16.70;87.80;;;;;;4992880;28;20035;-62
2022/05/13 06:26:38;;;;;;;25.27;9.27;;;16.70;87.10;;;;;;4994907;28;20221;-63
2022/05/13 06:29:05;;;;;;;11.27;9.05;;;16.80;86.70;;;;;;4994898;28;20041;-63
2022/05/13 06:31:30;;;;;;;21.90;8.43;;;17.00;86.10;;;;;;4993079;28;20038;-63
2022/05/13 06:34:15;;;;;;;16.85;8.23;;;17.10;86.70;;;;;;4994463;28;20550;-66
2022/05/13 06:36:41;;;;;;;10.27;7.90;;;17.30;85.70;;;;;;4992777;28;20402;-63
2022/05/13 06:39:10;;;;;;;11.40;7.18;;;17.30;84.70;;;;;;4994756;28;20061;-62
2022/05/13 06:41:40;;;;;;;13.70;7.88;;;17.40;83.50;;;;;;4994987;28;20034;-62
2022/05/13 06:44:10;;;;;;;8.48;6.78;;;17.40;81.30;;;;;;4979458;28;20031;-62
2022/05/13 06:46:38;;;;;;;13.07;7.72;;;17.40;80.80;;;;;;4993908;28;20038;-62
2022/05/13 06:49:28;;;;;;;13.00;7.05;;;17.40;80.90;;;;;;4996596;28;20050;-63
2022/05/13 06:51:53;;;;;;;10.88;7.15;;;17.50;81.40;;;;;;4992916;28;20034;-63
2022/05/13 06:54:19;;;;;;;13.10;5.55;;;17.60;78.40;;;;;;4993771;28;20390;-62
2022/05/13 06:56:44;;;;;;;25.08;6.97;;;17.60;78.50;;;;;;4992397;28;20035;-63
2022/05/13 06:59:10;;;;;;;10.05;5.85;;;17.90;78.40;;;;;;4992502;28;20053;-62
2022/05/13 07:01:36;;;;;;;11.88;7.13;;;17.90;76.50;;;;;;4991504;28;20042;-63
2022/05/13 07:04:04;;;;;;;9.15;6.05;;;17.80;75.90;;;;;;4993732;28;20117;-64
2022/05/13 07:06:30;;;;;;;15.95;6.38;;;17.90;75.50;;;;;;4992495;28;20038;-61
2022/05/13 07:08:56;;;;;;;12.73;5.70;;;18.00;76.80;;;;;;4991377;28;20042;-63
2022/05/13 07:11:22;;;;;;;9.88;6.25;;;18.00;75.90;;;;;;4990967;28;20025;-59
2022/05/13 07:13:48;;;;;;;11.23;5.97;;;18.00;75.80;;;;;;4990659;28;20049;-61
2022/05/13 07:16:14;;;;;;;10.15;5.22;;;18.10;75.70;;;;;;4990192;28;20054;-62
2022/05/13 07:18:41;;;;;;;11.57;6.10;;;18.10;75.10;;;;;;4991870;28;20030;-62
2022/05/13 07:21:07;;;;;;;15.82;5.40;;;18.10;75.00;;;;;;4990220;28;20482;-63
2022/05/13 07:23:32;;;;;;;14.45;5.70;;;18.10;74.40;;;;;;4991394;28;20101;-62
2022/05/13 07:25:59;;;;;;;8.93;5.40;;;18.20;74.10;;;;;;4989916;28;20035;-62
2022/05/13 07:28:28;;;;;;;13.98;5.72;;;18.40;74.40;;;;;;4991383;28;20070;-62
2022/05/13 07:30:54;;;;;;;10.45;5.30;;;18.50;73.00;;;;;;4991789;28;20093;-63
2022/05/13 07:33:21;;;;;;;11.05;5.65;;;18.40;72.90;;;;;;4989293;28;20038;-62
2022/05/13 07:35:47;;;;;;;10.25;5.20;;;18.30;73.70;;;;;;4989012;28;20038;-63
2022/05/13 07:38:13;;;;;;;12.18;6.25;;;17.90;73.90;;;;;;4990000;28;20113;-62
2022/05/13 07:43:23;;;;;;;7.97;4.97;;;18.20;74.40;;;;;;4990421;28;20538;-65
2022/05/13 07:45:48;;;;;;;10.73;5.15;;;18.10;73.70;;;;;;4991454;28;20085;-63
2022/05/13 07:48:14;;;;;;;10.35;5.35;;;18.10;74.30;;;;;;4986326;28;20057;-64
2022/05/13 07:50:41;;;;;;;10.75;5.32;;;18.10;73.40;;;;;;4973933;28;20475;-63
2022/05/13 07:53:07;;;;;;;12.52;5.07;;;18.20;73.70;;;;;;4969087;28;20089;-62
2022/05/13 07:55:33;;;;;;;8.82;5.90;;;18.20;73.90;;;;;;4991125;28;20070;-62
2022/05/13 07:57:59;;;;;;;9.82;5.45;;;18.20;74.20;;;;;;4991366;28;20073;-63
2022/05/13 08:00:29;;;;;;;10.88;5.50;;;18.10;74.10;;;;;;4991840;28;20070;-63
2022/05/13 08:03:01;;;;;;;9.38;5.45;;;18.30;74.30;;;;;;4992002;28;20023;-63
2022/05/13 08:05:30;;;;;;;10.30;5.05;;;18.40;74.00;;;;;;4994793;28;20030;-62
2022/05/13 08:08:04;;;;;;;10.23;5.30;;;18.40;74.40;;;;;;4994287;28;20030;-61
2022/05/13 08:10:30;;;;;;;6.35;4.80;;;18.40;74.80;;;;;;4995375;28;20669;-64
2022/05/13 08:12:56;;;;;;;8.82;4.93;;;18.50;74.50;;;;;;4993366;28;20121;-63
2022/05/13 08:15:21;;;;;;;10.95;5.25;;;18.40;73.80;;;;;;4993647;28;20026;-64
2022/05/13 08:17:47;;;;;;;8.55;5.35;;;18.20;74.60;;;;;;4995293;28;20034;-63
2022/05/13 08:20:12;;;;;;;10.85;5.50;;;18.20;75.00;;;;;;4992507;28;20501;-63
2022/05/13 08:22:38;;;;;;;10.02;5.78;;;17.90;74.90;;;;;;4992051;28;20045;-62
2022/05/13 08:25:04;;;;;;;7.75;5.85;;;17.90;75.70;;;;;;4975512;28;20038;-62
2022/05/13 08:27:32;;;;;;;13.32;5.38;;;18.00;75.60;;;;;;4995186;28;20486;-63
2022/05/13 08:30:01;;;;;;;11.80;5.40;;;18.00;75.70;;;;;;4993971;28;20038;-63
2022/05/13 08:32:27;;;;;;;10.50;5.82;;;17.90;76.00;;;;;;4994680;28;20049;-63
2022/05/13 08:34:53;;;;;;;7.43;5.43;;;17.70;76.10;;;;;;4977436;28;20061;-61
2022/05/13 08:37:19;;;;;;;10.20;6.00;;;17.70;76.10;;;;;;4993130;28;20375;-62
2022/05/13 08:39:44;;;;;;;8.82;5.90;;;17.50;76.60;;;;;;4994152;28;20053;-61
2022/05/13 08:42:21;;;;;;;10.82;6.50;;;17.60;76.80;;;;;;4994530;28;20497;-60
2022/05/13 08:44:49;;;;;;;11.27;6.63;;;17.50;77.30;;;;;;4992046;28;20088;-59
2022/05/13 08:47:22;;;;;;;12.05;6.00;;;17.80;76.80;;;;;;4994257;28;20061;-61
2022/05/13 08:50:12;;;;;;;12.18;6.30;;;17.90;76.90;;;;;;4991084;28;20034;-61
2022/05/13 08:53:12;;;;;;;11.05;5.47;;;18.10;76.40;;;;;;4990667;28;20030;-61
2022/05/13 08:55:49;;;;;;;10.07;6.13;;;18.20;76.30;;;;;;4994027;28;20029;-62
2022/05/13 08:58:23;;;;;;;12.02;6.97;;;18.30;76.50;;;;;;4992678;28;20053;-58
2022/05/13 09:00:53;;;;;;;10.20;6.73;;;18.40;77.20;;;;;;4994276;28;20046;-60
2022/05/13 09:03:30;;;;;;;10.98;6.53;;;18.50;75.70;;;;;;4994217;28;20281;-59
2022/05/13 09:06:18;;;;;;;14.55;6.97;;;18.50;75.40;;;;;;4993407;28;20132;-59
2022/05/13 09:08:44;;;;;;;10.88;6.70;;;18.60;75.10;;;;;;4991778;28;20038;-59
2022/05/13 09:11:19;;;;;;;10.43;7.07;;;18.60;75.70;;;;;;4993543;28;20505;-54
2022/05/13 09:14:10;;;;;;;11.23;7.32;;;18.90;74.20;;;;;;4991699;28;20086;-57
2022/05/13 09:16:43;;;;;;;10.18;6.85;;;18.90;73.30;;;;;;4990385;28;20058;-56
2022/05/13 09:19:23;;;;;;;10.27;6.40;;;18.90;73.40;;;;;;4992610;28;20076;-59
2022/05/13 09:21:48;;;;;;;9.20;6.85;;;18.80;73.20;;;;;;4990488;28;20365;-62
2022/05/13 09:24:14;;;;;;;9.85;6.15;;;18.80;74.30;;;;;;4992437;28;20478;-65
2022/05/13 09:26:39;;;;;;;13.40;6.60;;;18.90;74.40;;;;;;4993373;28;20545;-63
2022/05/13 09:29:20;;;;;;;10.77;6.07;;;18.90;74.50;;;;;;4994023;28;20030;-65
2022/05/13 09:32:00;;;;;;;11.50;6.72;;;19.10;72.80;;;;;;4992720;28;20494;-65
2022/05/13 09:35:05;;;;;;;9.40;5.97;;;19.10;72.70;;;;;;4992234;28;20513;-52
2022/05/13 09:37:37;;;;;;;9.38;5.95;;;19.00;75.00;;;;;;4952254;28;20125;-56
2022/05/13 09:40:17;;;;;;;11.68;5.97;;;19.00;72.20;;;;;;4993515;28;20392;-58
2022/05/13 09:42:46;;;;;;;8.85;5.47;;;19.20;73.30;;;;;;4988259;28;20529;-55
2022/05/13 09:45:14;;;;;;;10.15;5.15;;;19.40;73.50;;;;;;4991313;28;20117;-56
2022/05/13 09:47:41;;;;;;;15.32;6.43;;;19.30;71.60;;;;;;4991044;28;20076;-58
2022/05/13 09:50:22;;;;;;;9.27;5.60;;;19.10;73.50;;;;;;4987991;28;20045;-54
2022/05/13 09:52:49;;;;;;;6.28;4.95;;;19.10;73.70;;;;;;4991037;28;20045;-52
2022/05/13 09:55:39;;;;;;;9.23;5.25;;;19.30;71.60;;;;;;4991811;28;20034;-51
2022/05/13 09:58:15;;;;;;;8.60;5.10;;;19.30;71.20;;;;;;4991736;28;20057;-57
2022/05/13 10:00:43;;;;;;;8.55;5.50;;;19.20;71.80;;;;;;4987051;28;20136;-53
2022/05/13 10:03:18;;;;;;;9.15;5.22;;;18.90;71.60;;;;;;4992016;28;20066;-55
2022/05/13 10:05:44;;;;;;;13.02;5.72;;;18.80;72.90;;;;;;4991449;28;20463;-57
2022/05/13 10:08:17;;;;;;;8.85;5.28;;;19.00;71.90;;;;;;4992388;28;20036;-58
2022/05/13 10:13:59;;;;;;;13.63;5.10;;;18.90;73.40;;;;;;4985428;28;20395;-51
2022/05/13 10:16:44;;;;;;;10.30;5.28;;;19.10;71.40;;;;;;4992649;28;20069;-55
2022/05/13 10:19:18;;;;;;;14.02;5.22;;;19.00;71.40;;;;;;4990172;28;20110;-54
2022/05/13 10:21:49;;;;;;;11.90;5.00;;;18.90;71.00;;;;;;4989957;28;20137;-56
2022/05/13 10:24:30;;;;;;;10.77;5.20;;;18.80;72.10;;;;;;4989879;28;20050;-54
2022/05/13 10:26:58;;;;;;;8.35;4.47;;;19.00;71.00;;;;;;4988427;28;20382;-54
2022/05/13 10:29:36;;;;;;;6.88;4.25;;;18.90;69.80;;;;;;4987999;28;20042;-58
2022/05/13 10:32:18;;;;;;;8.27;4.20;;;18.90;69.30;;;;;;4992271;28;20038;-55
2022/05/13 10:34:48;;;;;;;10.43;4.20;;;19.00;70.10;;;;;;4992367;28;20034;-55
2022/05/13 10:37:47;;;;;;;10.43;4.20;;;18.90;68.80;;;;;;4991355;28;20022;-56
2022/05/13 10:40:18;;;;;;;11.25;4.20;;;18.90;70.30;;;;;;4987351;28;20022;-57
2022/05/13 10:43:02;;;;;;;9.23;4.35;;;19.20;69.60;;;;;;4986995;28;20058;-55
2022/05/13 10:45:30;;;;;;;9.07;4.10;;;19.30;68.40;;;;;;4990443;28;20026;-58
2022/05/13 10:48:02;;;;;;;9.10;3.85;;;19.30;69.70;;;;;;4991323;28;20495;-53
2022/05/13 10:50:51;;;;;;;11.05;4.43;;;19.70;68.10;;;;;;4989609;28;20035;-58
2022/05/13 10:53:55;;;;;;;7.68;4.20;;;19.40;68.30;;;;;;4990658;28;20045;-56
2022/05/13 10:56:40;;;;;;;12.38;4.63;;;19.30;69.10;;;;;;4990080;28;20537;-57
2022/05/13 10:59:34;;;;;;;10.93;5.07;;;19.30;69.40;;;;;;4990729;28;20038;-54
2022/05/13 11:02:18;;;;;;;8.27;4.75;;;19.30;68.50;;;;;;4989357;28;20045;-55
2022/05/13 11:05:03;;;;;;;11.13;5.77;;;19.00;69.10;;;;;;4991226;28;20266;-56
2022/05/13 11:08:02;;;;;;;10.52;4.60;;;18.70;69.70;;;;;;4990732;28;20042;-58
2022/05/13 11:10:31;;;;;;;10.48;4.40;;;18.40;69.70;;;;;;4991920;28;20097;-53
2022/05/13 11:13:20;;;;;;;8.07;4.20;;;18.50;69.20;;;;;;4992096;28;20394;-56
2022/05/13 11:16:33;;;;;;;9.98;4.28;;;18.60;68.20;;;;;;4991055;28;20072;-58
2022/05/13 11:19:20;;;;;;;11.32;3.70;;;18.90;67.20;;;;;;4984048;28;20515;-57
2022/05/13 11:21:57;;;;;;;5.15;2.80;;;19.00;65.90;;;;;;4991834;28;20630;-55
2022/05/13 11:27:50;;;;;;;9.13;3.67;;;19.30;64.50;;;;;;4991716;28;20439;-54
2022/05/13 11:30:42;;;;;;;7.55;3.15;;;19.40;63.20;;;;;;4988656;28;20038;-56
2022/05/13 11:33:26;;;;;;;8.05;3.80;;;19.40;61.90;;;;;;4991067;28;20038;-53
2022/05/13 11:36:05;;;;;;;8.70;3.85;;;19.30;61.30;;;;;;4988695;28;20503;-53
2022/05/13 11:38:49;;;;;;;10.40;3.78;;;19.40;61.30;;;;;;4990262;28;20038;-54
2022/05/13 11:41:20;;;;;;;7.35;3.75;;;19.10;61.90;;;;;;4987408;28;20125;-60
2022/05/13 11:44:03;;;;;;;8.20;3.55;;;18.80;61.30;;;;;;4990170;28;20042;-50
2022/05/13 11:46:52;;;;;;;8.25;3.70;;;18.80;62.00;;;;;;4991366;28;20026;-56
2022/05/13 11:49:26;;;;;;;10.15;4.10;;;18.80;62.80;;;;;;4994647;28;20026;-55
2022/05/13 11:51:52;;;;;;;;;;;18.70;63.80;;;;;;4993901;28;20563;-57
2022/05/13 11:54:25;;;;;;;10.10;4.13;;;18.70;64.20;;;;;;4993752;28;19913;-58
2022/05/13 11:57:16;;;;;;;6.40;4.10;;;18.70;64.40;;;;;;4991620;28;20034;-56
2022/05/13 11:59:45;;;;;;;7.00;3.50;;;18.70;64.00;;;;;;4991692;28;20034;-59
2022/05/13 12:02:40;;;;;;;8.82;4.32;;;18.80;63.10;;;;;;4990953;28;20037;-56
2022/05/13 12:05:17;;;;;;;8.82;4.07;;;19.00;63.20;;;;;;4975396;28;20510;-56
2022/05/13 12:07:57;;;;;;;4.35;3.53;;;18.90;63.30;;;;;;4990728;28;20035;-54
2022/05/13 12:10:29;;;;;;;15.10;3.53;;;19.10;63.60;;;;;;4991182;28;20463;-54
2022/05/13 12:13:10;;;;;;;9.05;3.65;;;19.00;64.10;;;;;;4991171;28;20049;-54
2022/05/13 12:16:03;;;;;;;10.43;3.92;;;18.70;63.80;;;;;;4991614;28;20042;-56
2022/05/13 12:18:32;;;;;;;6.82;3.30;;;18.70;64.70;;;;;;4991085;28;20557;-56
2022/05/13 12:21:16;;;;;;;7.55;3.85;;;18.80;64.70;;;;;;4990742;28;20031;-56
2022/05/13 12:23:51;;;;;;;8.00;3.72;;;18.60;64.50;;;;;;4990745;28;20062;-56
2022/05/13 12:26:44;;;;;;;10.95;3.40;;;18.70;63.30;;;;;;4990684;28;20030;-58
2022/05/13 12:29:18;;;;;;;7.93;3.38;;;18.60;63.70;;;;;;4991205;28;20085;-57
2022/05/13 12:32:07;;;;;;;7.43;3.63;;;18.70;62.10;;;;;;4991788;28;20034;-58
2022/05/13 12:38:01;;;;;;;12.25;3.60;;;18.90;62.20;;;;;;4971138;28;20499;-58
2022/05/13 12:40:50;;;;;;;7.30;3.30;;;18.70;62.90;;;;;;4991133;28;20026;-56
2022/05/13 12:43:18;;;;;;;9.65;3.80;;;18.60;63.60;;;;;;4990717;28;20084;-57
2022/05/13 12:45:58;;;;;;;8.80;3.20;;;18.70;63.70;;;;;;4990256;28;20498;-55
2022/05/13 12:48:23;;;;;;;7.05;3.40;;;18.70;63.30;;;;;;4990538;28;20035;-56
2022/05/13 12:50:50;;;;;;;8.77;3.13;;;18.70;63.50;;;;;;4994431;28;20360;-54
2022/05/13 12:53:28;;;;;;;9.43;3.53;;;18.60;64.00;;;;;;4994128;28;20052;-52
2022/05/13 12:56:07;;;;;;;8.20;3.38;;;18.70;63.90;;;;;;4994143;28;20069;-58
2022/05/13 12:58:33;;;;;;;7.50;3.30;;;18.50;63.90;;;;;;4994133;28;20072;-54
2022/05/13 13:01:01;;;;;;;10.52;3.58;;;18.60;64.20;;;;;;4993460;28;20420;-58
2022/05/13 13:03:27;;;;;;;9.43;3.72;;;18.30;65.20;;;;;;4990031;28;20027;-55
2022/05/13 13:06:00;;;;;;;11.02;3.97;;;18.10;65.20;;;;;;4994367;28;20457;-56
2022/05/13 13:08:35;;;;;;;9.35;3.35;;;18.20;65.40;;;;;;4993871;28;20375;-53
2022/05/13 13:11:13;;;;;;;6.72;2.90;;;18.30;65.20;;;;;;4993804;28;20035;-55
2022/05/13 13:13:57;;;;;;;22.67;7.70;;;18.40;65.20;;;;;;4992515;28;20042;-56
2022/05/13 13:16:41;;;;;;;6.75;3.15;;;18.40;64.20;;;;;;4992532;28;20030;-56
2022/05/13 13:19:11;;;;;;;8.17;3.13;;;18.40;64.00;;;;;;4989814;28;20109;-56
2022/05/13 13:21:38;;;;;;;8.23;4.07;;;18.30;63.20;;;;;;4992962;28;20265;-54
2022/05/13 13:24:25;;;;;;;4.65;2.80;;;18.30;63.60;;;;;;4993318;28;20044;-53
2022/05/13 13:26:52;;;;;;;8.13;3.00;;;18.50;62.60;;;;;;4992186;28;20105;-59
2022/05/13 13:29:25;;;;;;;7.00;3.35;;;18.70;62.50;;;;;;4993921;28;20035;-58